createdAt,value
2018-06-23T00:01:26.800Z,95416.39
2018-06-23T00:03:55.520Z,95423.98
2018-06-23T00:06:24.138Z,95419.22
2018-06-23T00:08:52.780Z,95423.55
2018-06-23T00:11:21.383Z,95411.95
2018-06-23T00:13:50.003Z,95429.38
2018-06-23T00:16:18.615Z,95429.97
2018-06-23T00:18:47.190Z,95436.26
2018-06-23T00:21:15.787Z,95434.91
2018-06-23T00:23:44.388Z,95426.98
2018-06-23T00:26:18.307Z,95417.10
2018-06-23T00:28:46.867Z,95428.34
2018-06-23T00:31:15.496Z,95435.22
2018-06-23T00:33:44.099Z,95439.37
2018-06-23T00:36:12.718Z,95431.84
2018-06-23T00:38:41.340Z,95449.33
2018-06-23T00:41:09.932Z,95431.92
2018-06-23T00:43:38.491Z,95443.23
2018-06-23T00:46:07.151Z,95439.05
2018-06-23T00:48:35.851Z,95449.52
2018-06-23T00:51:04.435Z,95448.48
2018-06-23T00:53:33.032Z,95458.52
2018-06-23T00:56:01.899Z,95454.47
2018-06-23T00:58:37.179Z,95455.82
2018-06-23T01:01:05.818Z,95455.42
2018-06-23T01:03:34.464Z,95451.36
2018-06-23T01:06:03.154Z,95454.19
2018-06-23T01:08:31.779Z,95458.16
2018-06-23T01:11:00.363Z,95453.98
2018-06-23T01:13:29.010Z,95458.98
2018-06-23T01:15:57.609Z,95461.91
2018-06-23T01:18:26.191Z,95460.23
2018-06-23T01:20:54.795Z,95449.19
2018-06-23T01:23:23.344Z,95448.41
2018-06-23T01:25:51.923Z,95457.98
2018-06-23T01:28:20.622Z,95453.05
2018-06-23T01:30:49.227Z,95464.08
2018-06-23T01:33:17.798Z,95457.77
2018-06-23T01:35:46.455Z,95453.38
2018-06-23T01:38:15.063Z,95084.23
2018-06-23T01:40:43.642Z,95459.47
2018-06-23T01:43:12.224Z,95457.55
2018-06-23T01:45:40.830Z,95466.09
2018-06-23T01:48:09.446Z,95468.95
2018-06-23T01:50:38.010Z,95474.00
2018-06-23T01:53:06.644Z,95474.23
2018-06-23T01:55:35.252Z,95464.64
2018-06-23T01:58:03.912Z,95475.14
2018-06-23T02:00:32.542Z,95476.05
2018-06-23T02:03:01.204Z,95479.09
2018-06-23T02:05:29.824Z,95482.48
2018-06-23T02:07:58.406Z,95486.88
2018-06-23T02:10:27.006Z,95492.49
2018-06-23T02:12:55.634Z,95497.02
2018-06-23T02:16:33.523Z,95504.11
2018-06-23T02:19:07.657Z,95502.63
2018-06-23T02:21:41.629Z,95505.23
2018-06-23T02:24:15.489Z,95505.81
2018-06-23T02:26:49.203Z,95510.98
2018-06-23T02:29:23.023Z,95510.53
2018-06-23T02:31:56.851Z,95526.78
2018-06-23T02:34:30.725Z,95520.91
2018-06-23T02:36:59.415Z,95532.86
2018-06-23T02:39:28.013Z,95527.13
2018-06-23T02:41:56.597Z,95513.93
2018-06-23T02:44:25.194Z,95517.53
2018-06-23T02:46:53.806Z,95522.94
2018-06-23T02:49:22.606Z,95521.13
2018-06-23T02:51:51.182Z,95525.86
2018-06-23T02:54:19.784Z,95531.61
2018-06-23T02:56:48.670Z,95529.14
2018-06-23T02:59:19.433Z,95531.50
2018-06-23T03:01:49.236Z,95542.77
2018-06-23T03:04:18.465Z,95540.65
2018-06-23T03:06:47.067Z,95552.23
2018-06-23T03:09:15.641Z,95547.95
2018-06-23T03:11:44.233Z,95564.41
2018-06-23T03:14:12.811Z,95566.67
2018-06-23T03:16:41.400Z,95569.80
2018-06-23T03:19:10.010Z,95564.16
2018-06-23T03:21:38.601Z,95570.91
2018-06-23T03:24:07.203Z,95580.86
2018-06-23T03:26:35.770Z,95578.63
2018-06-23T03:29:04.525Z,95581.09
2018-06-23T03:31:33.202Z,95581.52
2018-06-23T03:34:01.806Z,95593.14
2018-06-23T03:36:30.410Z,95583.98
2018-06-23T03:38:59.022Z,95593.03
2018-06-23T03:41:27.615Z,95591.12
2018-06-23T03:43:56.174Z,95596.30
2018-06-23T03:46:24.765Z,95589.42
2018-06-23T03:48:53.356Z,95594.38
2018-06-23T03:51:21.995Z,95591.89
2018-06-23T03:53:50.621Z,95578.27
2018-06-23T03:56:19.242Z,95588.39
2018-06-23T03:58:47.874Z,95601.91
2018-06-23T04:01:16.465Z,95600.03
2018-06-23T04:03:45.088Z,95593.03
2018-06-23T04:06:13.723Z,95585.28
2018-06-23T04:08:42.336Z,95592.37
2018-06-23T04:11:11.030Z,95590.45
2018-06-23T04:13:39.665Z,95588.76
2018-06-23T04:16:08.302Z,95451.30
2018-06-23T04:18:36.909Z,95600.94
2018-06-23T04:21:05.590Z,95600.94
2018-06-23T04:23:34.155Z,95592.48
2018-06-23T04:26:02.788Z,95608.84
2018-06-23T04:28:31.394Z,95607.70
2018-06-23T04:31:00.927Z,95616.30
2018-06-23T04:33:29.499Z,95608.16
2018-06-23T04:35:58.071Z,95616.27
2018-06-23T04:38:26.694Z,95618.63
2018-06-23T04:40:55.302Z,95630.27
2018-06-23T04:43:23.955Z,95640.30
2018-06-23T04:45:52.552Z,95630.83
2018-06-23T04:48:21.155Z,95635.02
2018-06-23T04:50:50.634Z,95628.13
2018-06-23T04:53:19.577Z,95631.04
2018-06-23T04:55:49.993Z,95639.02
2018-06-23T04:58:18.561Z,95639.78
2018-06-23T05:00:47.168Z,95637.41
2018-06-23T05:03:15.837Z,95651.10
2018-06-23T05:05:44.483Z,95646.09
2018-06-23T05:08:13.060Z,95642.48
2018-06-23T05:10:41.655Z,95652.40
2018-06-23T05:13:10.264Z,95662.28
2018-06-23T05:15:38.911Z,95661.78
2018-06-23T05:18:07.476Z,95669.64
2018-06-23T05:20:36.190Z,95665.85
2018-06-23T05:23:04.809Z,95680.06
2018-06-23T05:25:33.399Z,95679.16
2018-06-23T05:28:02.118Z,95673.66
2018-06-23T05:30:30.789Z,95680.00
2018-06-23T05:32:59.434Z,95688.25
2018-06-23T05:35:28.053Z,95684.30
2018-06-23T05:37:56.727Z,95694.39
2018-06-23T05:40:25.334Z,95694.48
2018-06-23T05:42:54.002Z,95695.04
2018-06-23T05:45:22.650Z,95693.47
2018-06-23T05:47:51.311Z,95692.77
2018-06-23T05:50:19.993Z,95693.56
2018-06-23T05:52:48.667Z,95702.22
2018-06-23T05:55:17.262Z,95703.17
2018-06-23T05:57:45.907Z,95709.69
2018-06-23T06:00:14.527Z,95704.71
2018-06-23T06:02:43.199Z,95710.79
2018-06-23T06:05:11.834Z,95714.90
2018-06-23T06:07:40.457Z,95717.51
2018-06-23T06:10:09.104Z,95720.81
2018-06-23T06:12:37.722Z,95723.23
2018-06-23T06:15:06.497Z,95713.95
2018-06-23T06:17:36.366Z,95714.53
2018-06-23T06:20:06.701Z,95716.55
2018-06-23T06:22:39.493Z,95709.34
2018-06-23T06:25:08.819Z,95713.81
2018-06-23T06:27:37.514Z,95710.56
2018-06-23T06:30:07.274Z,95717.31
2018-06-23T06:32:36.183Z,95715.70
2018-06-23T06:35:05.161Z,95714.58
2018-06-23T06:37:33.816Z,95714.95
2018-06-23T06:40:02.484Z,95716.14
2018-06-23T06:42:31.099Z,95722.17
2018-06-23T06:44:59.711Z,95721.91
2018-06-23T06:47:28.347Z,95712.63
2018-06-23T06:49:56.942Z,95711.88
2018-06-23T06:52:25.515Z,95707.89
2018-06-23T06:54:54.179Z,95716.32
2018-06-23T06:57:23.020Z,95715.78
2018-06-23T06:59:51.633Z,95714.20
2018-06-23T07:02:20.283Z,95723.38
2018-06-23T07:04:49.014Z,95722.73
2018-06-23T07:07:17.676Z,95723.47
2018-06-23T07:09:46.502Z,95724.38
2018-06-23T07:12:15.130Z,95712.05
2018-06-23T07:14:43.967Z,95715.52
2018-06-23T07:17:12.770Z,95714.36
2018-06-23T07:19:41.499Z,95709.34
2018-06-23T07:22:10.472Z,95705.78
2018-06-23T07:24:39.281Z,95714.23
2018-06-23T07:27:07.950Z,95714.55
2018-06-23T07:29:36.580Z,95699.20
2018-06-23T07:32:05.450Z,95710.25
2018-06-23T07:34:34.213Z,95720.84
2018-06-23T07:37:02.771Z,95710.04
2018-06-23T07:39:31.590Z,95712.53
2018-06-23T07:42:00.182Z,95719.88
2018-06-23T07:44:28.782Z,95715.56
2018-06-23T07:46:57.382Z,95716.13
2018-06-23T07:49:26.191Z,95720.31
2018-06-23T07:51:54.788Z,95714.45
2018-06-23T07:54:24.039Z,95714.08
2018-06-23T07:56:52.715Z,95710.20
2018-06-23T07:59:21.286Z,95715.95
2018-06-23T08:01:49.970Z,95713.55
2018-06-23T08:04:18.563Z,95715.11
2018-06-23T08:06:47.191Z,95709.89
2018-06-23T08:09:15.851Z,95723.13
2018-06-23T08:11:44.512Z,95716.08
2018-06-23T08:14:13.482Z,95710.22
2018-06-23T08:16:42.564Z,95714.78
2018-06-23T08:19:11.145Z,95714.23
2018-06-23T08:21:39.740Z,95722.17
2018-06-23T08:24:08.487Z,95715.99
2018-06-23T08:26:37.291Z,95723.13
2018-06-23T08:29:05.850Z,95714.27
2018-06-23T08:31:34.539Z,95724.59
2018-06-23T08:34:03.253Z,95714.18
2018-06-23T08:36:31.870Z,95713.95
2018-06-23T08:39:00.507Z,95714.67
2018-06-23T08:41:29.100Z,95712.31
2018-06-23T08:43:57.963Z,95711.99
2018-06-23T08:46:26.591Z,95703.87
2018-06-23T08:48:55.188Z,95697.02
2018-06-23T08:51:23.852Z,95695.89
2018-06-23T08:53:52.483Z,95689.89
2018-06-23T08:56:21.082Z,95690.94
2018-06-23T08:58:49.787Z,95692.40
2018-06-23T09:01:18.396Z,95693.22
2018-06-23T09:03:47.002Z,95687.63
2018-06-23T09:06:15.630Z,95697.80
2018-06-23T09:08:44.235Z,95689.36
2018-06-23T09:11:12.914Z,95687.63
2018-06-23T09:13:42.258Z,95698.38
2018-06-23T09:16:10.907Z,95696.55
2018-06-23T09:18:40.355Z,95682.12
2018-06-23T09:21:08.984Z,95682.80
2018-06-23T09:23:37.626Z,95685.34
2018-06-23T09:26:06.300Z,95691.80
2018-06-23T09:28:34.900Z,95687.73
2018-06-23T09:31:03.482Z,95687.83
2018-06-23T09:33:32.090Z,95692.06
2018-06-23T09:36:00.707Z,95694.42
2018-06-23T09:38:29.596Z,95696.81
2018-06-23T09:40:58.214Z,95692.13
2018-06-23T09:43:26.798Z,95696.67
2018-06-23T09:45:55.503Z,95699.48
2018-06-23T09:48:24.064Z,95695.48
2018-06-23T09:50:52.671Z,95685.25
2018-06-23T09:53:22.588Z,95679.87
2018-06-23T09:55:51.305Z,95672.61
2018-06-23T09:58:20.118Z,95674.50
2018-06-23T10:00:48.691Z,95675.11
2018-06-23T10:03:17.428Z,95673.56
2018-06-23T10:05:46.331Z,95671.44
2018-06-23T10:08:14.946Z,95683.45
2018-06-23T10:10:44.133Z,95670.65
2018-06-23T10:13:12.815Z,95664.08
2018-06-23T10:15:42.111Z,95655.27
2018-06-23T10:18:10.739Z,95648.75
2018-06-23T10:20:39.431Z,95667.86
2018-06-23T10:23:08.138Z,95661.31
2018-06-23T10:25:36.824Z,95656.60
2018-06-23T10:28:05.760Z,95650.97
2018-06-23T10:30:34.377Z,95637.42
2018-06-23T10:33:03.259Z,95635.46
2018-06-23T10:35:31.879Z,95635.86
2018-06-23T10:38:00.627Z,95631.88
2018-06-23T10:40:29.258Z,95621.34
2018-06-23T10:42:57.866Z,95620.34
2018-06-23T10:45:26.616Z,95606.60
2018-06-23T10:47:55.249Z,95604.87
2018-06-23T10:50:23.858Z,95612.36
2018-06-23T10:52:52.476Z,95599.05
2018-06-23T10:55:21.093Z,95601.73
2018-06-23T10:57:49.721Z,95602.61
2018-06-23T11:00:18.343Z,95600.09
2018-06-23T11:02:46.970Z,95595.17
2018-06-23T11:05:15.719Z,95583.41
2018-06-23T11:07:44.395Z,95588.81
2018-06-23T11:10:13.536Z,95580.34
2018-06-23T11:12:42.137Z,95573.22
2018-06-23T11:15:10.824Z,95590.80
2018-06-23T11:17:39.811Z,95570.30
2018-06-23T11:20:08.450Z,95568.20
2018-06-23T11:22:37.045Z,95556.71
2018-06-23T11:25:06.089Z,95561.37
2018-06-23T11:27:34.731Z,95557.32
2018-06-23T11:30:03.492Z,95552.27
2018-06-23T11:32:32.061Z,95542.73
2018-06-23T11:35:00.679Z,95540.98
2018-06-23T11:37:29.283Z,95558.03
2018-06-23T11:39:57.970Z,95546.96
2018-06-23T11:42:26.641Z,95544.50
2018-06-23T11:44:55.320Z,95542.06
2018-06-23T11:47:24.173Z,95542.33
2018-06-23T11:49:53.042Z,95537.88
2018-06-23T11:52:21.665Z,95540.38
2018-06-23T11:54:50.239Z,95538.88
2018-06-23T11:57:18.950Z,95531.16
2018-06-23T11:59:47.537Z,95526.64
2018-06-23T12:02:16.256Z,95528.03
2018-06-23T12:04:44.838Z,95521.55
2018-06-23T12:07:13.436Z,95520.61
2018-06-23T12:09:42.032Z,95522.27
2018-06-23T12:12:10.658Z,95528.48
2018-06-23T12:14:39.261Z,95523.09
2018-06-23T12:17:07.837Z,95519.55
2018-06-23T12:19:36.463Z,95527.07
2018-06-23T12:22:05.100Z,95522.74
2018-06-23T12:24:33.702Z,95516.75
2018-06-23T12:27:02.288Z,95512.02
2018-06-23T12:29:31.799Z,95510.72
2018-06-23T12:32:01.212Z,95510.73
2018-06-23T12:34:29.867Z,95501.58
2018-06-23T12:36:58.510Z,95507.43
2018-06-23T12:39:27.581Z,95499.98
2018-06-23T12:41:56.416Z,95504.67
2018-06-23T12:44:25.096Z,95499.16
2018-06-23T12:46:54.234Z,95499.80
2018-06-23T12:49:22.822Z,95497.07
2018-06-23T12:51:51.567Z,95490.02
2018-06-23T12:54:20.155Z,95493.14
2018-06-23T12:56:48.808Z,95489.45
2018-06-23T12:59:17.611Z,95496.09
2018-06-23T13:01:46.271Z,95499.25
2018-06-23T13:04:14.934Z,95490.05
2018-06-23T13:06:43.883Z,95490.34
2018-06-23T13:09:13.118Z,95491.18
2018-06-23T13:11:41.808Z,95472.70
2018-06-23T13:14:10.689Z,95469.30
2018-06-23T13:16:39.328Z,95468.92
2018-06-23T13:19:07.915Z,95464.54
2018-06-23T13:21:36.615Z,95471.38
2018-06-23T13:24:05.333Z,95467.02
2018-06-23T13:26:34.035Z,95469.07
2018-06-23T13:29:02.791Z,95473.41
2018-06-23T13:31:31.786Z,95470.76
2018-06-23T13:34:01.512Z,95474.41
2018-06-23T13:36:30.131Z,95479.84
2018-06-23T13:38:58.896Z,95477.58
2018-06-23T13:41:27.550Z,95487.70
2018-06-23T13:43:56.132Z,95486.17
2018-06-23T13:46:24.843Z,95474.98
2018-06-23T13:48:53.444Z,95480.05
2018-06-23T13:51:22.067Z,95476.28
2018-06-23T13:53:50.668Z,95472.16
2018-06-23T13:56:19.274Z,95471.41
2018-06-23T13:58:47.978Z,95474.59
2018-06-23T14:01:16.601Z,95472.85
2018-06-23T14:03:45.296Z,95472.04
2018-06-23T14:06:14.012Z,95483.31
2018-06-23T14:08:42.603Z,95476.16
2018-06-23T14:11:11.282Z,95479.18
2018-06-23T14:13:39.952Z,95476.47
2018-06-23T14:16:08.605Z,95467.05
2018-06-23T14:18:37.208Z,95461.20
2018-06-23T14:21:05.875Z,95476.52
2018-06-23T14:23:34.570Z,95457.73
2018-06-23T14:26:03.250Z,95454.80
2018-06-23T14:28:31.862Z,95446.08
2018-06-23T14:31:00.534Z,95447.22
2018-06-23T14:33:29.120Z,95456.50
2018-06-23T14:35:58.707Z,95458.41
2018-06-23T14:38:27.328Z,95453.60
2018-06-23T14:40:55.991Z,95449.50
2018-06-23T14:43:24.593Z,95454.14
2018-06-23T14:45:53.226Z,95448.48
2018-06-23T14:48:21.870Z,95448.38
2018-06-23T14:50:50.518Z,95447.67
2018-06-23T14:53:19.099Z,95449.28
2018-06-23T14:55:47.930Z,95448.70
2018-06-23T14:58:16.596Z,95450.04
2018-06-23T15:00:45.211Z,95455.11
2018-06-23T15:03:14.013Z,95452.38
2018-06-23T15:05:42.597Z,95457.48
2018-06-23T15:08:23.224Z,95454.50
2018-06-23T15:11:02.955Z,95459.43
2018-06-23T15:13:31.605Z,95462.23
2018-06-23T15:16:00.248Z,95455.61
2018-06-23T15:18:28.877Z,95469.23
2018-06-23T15:20:57.691Z,95467.24
2018-06-23T15:23:26.313Z,95472.86
2018-06-23T15:25:54.924Z,95469.98
2018-06-23T15:28:23.606Z,95475.95
2018-06-23T15:30:52.193Z,95469.62
2018-06-23T15:33:21.110Z,95478.11
2018-06-23T15:35:49.718Z,95480.40
2018-06-23T15:38:18.363Z,95488.16
2018-06-23T15:40:46.921Z,95481.63
2018-06-23T15:43:15.669Z,95483.34
2018-06-23T15:45:44.315Z,95477.84
2018-06-23T15:48:12.877Z,95479.73
2018-06-23T15:50:41.483Z,95475.85
2018-06-23T15:53:10.189Z,95491.45
2018-06-23T15:55:39.124Z,95490.45
2018-06-23T15:58:08.020Z,95480.66
2018-06-23T16:00:37.453Z,95478.70
2018-06-23T16:03:06.282Z,95487.25
2018-06-23T16:05:35.479Z,95483.34
2018-06-23T16:08:04.807Z,95490.12
2018-06-23T16:10:34.432Z,95492.72
2018-06-23T16:13:03.109Z,95492.91
2018-06-23T16:15:31.806Z,95500.25
2018-06-23T16:18:00.432Z,95498.98
2018-06-23T16:20:29.428Z,95495.02
2018-06-23T16:22:58.466Z,95495.13
2018-06-23T16:25:28.027Z,95504.11
2018-06-23T16:27:57.129Z,95508.95
2018-06-23T16:30:26.650Z,95515.71
2018-06-23T16:32:55.495Z,95510.44
2018-06-23T16:35:24.489Z,95518.45
2018-06-23T16:37:53.095Z,95521.70
2018-06-23T16:40:21.972Z,95523.14
2018-06-23T16:42:50.627Z,95526.49
2018-06-23T16:45:19.658Z,95524.48
2018-06-23T16:47:48.879Z,95532.77
2018-06-23T16:50:17.756Z,95533.59
2018-06-23T16:52:46.997Z,95532.30
2018-06-23T16:55:15.779Z,95538.02
2018-06-23T16:57:44.398Z,95532.46
2018-06-23T17:00:13.230Z,95535.92
2018-06-23T17:02:43.980Z,95536.03
2018-06-23T17:05:12.664Z,95545.42
2018-06-23T17:07:41.451Z,95546.70
2018-06-23T17:10:10.200Z,95545.66
2018-06-23T17:12:39.007Z,95550.69
2018-06-23T17:15:07.730Z,95552.05
2018-06-23T17:17:36.368Z,95551.38
2018-06-23T17:20:05.190Z,95545.61
2018-06-23T17:22:34.557Z,95554.18
2018-06-23T17:25:03.268Z,95552.97
2018-06-23T17:27:31.950Z,95556.27
2018-06-23T17:30:00.867Z,95555.98
2018-06-23T17:32:29.479Z,95561.85
2018-06-23T17:34:58.428Z,95568.89
2018-06-23T17:37:27.564Z,95567.84
2018-06-23T17:39:56.256Z,95567.36
2018-06-23T17:42:24.864Z,95576.22
2018-06-23T17:44:53.556Z,95567.94
2018-06-23T17:47:22.229Z,95570.97
2018-06-23T17:49:50.948Z,95542.75
2018-06-23T17:52:19.742Z,95577.72
2018-06-23T17:54:48.486Z,95582.78
2018-06-23T17:57:17.326Z,95579.48
2018-06-23T17:59:46.242Z,95577.86
2018-06-23T18:02:14.976Z,95586.83
2018-06-23T18:04:43.622Z,95580.16
2018-06-23T18:07:12.413Z,95588.75
2018-06-23T18:09:41.094Z,95595.72
2018-06-23T18:12:10.190Z,95590.30
2018-06-23T18:14:39.356Z,95595.19
2018-06-23T18:17:08.099Z,95597.77
2018-06-23T18:19:36.820Z,95598.05
2018-06-23T18:22:05.615Z,95602.42
2018-06-23T18:24:34.367Z,95602.00
2018-06-23T18:27:03.247Z,95606.89
2018-06-23T18:29:31.985Z,95603.37
2018-06-23T18:32:00.717Z,95606.16
2018-06-23T18:34:30.398Z,95604.74
2018-06-23T18:36:59.163Z,95606.16
2018-06-23T18:39:28.038Z,95614.05
2018-06-23T18:41:56.882Z,95628.58
2018-06-23T18:44:25.579Z,95628.01
2018-06-23T18:46:54.800Z,95632.90
2018-06-23T18:49:23.554Z,95647.22
2018-06-23T18:51:52.299Z,95643.92
2018-06-23T18:54:20.949Z,95645.20
2018-06-23T18:56:49.627Z,95654.87
2018-06-23T18:59:18.339Z,95656.17
2018-06-23T19:01:47.348Z,95661.94
2018-06-23T19:04:16.507Z,95663.60
2018-06-23T19:06:45.333Z,95666.89
2018-06-23T19:09:14.163Z,95665.39
2018-06-23T19:11:42.846Z,95669.52
2018-06-23T19:14:11.639Z,95675.54
2018-06-23T19:16:40.354Z,95679.76
2018-06-23T19:19:09.089Z,95681.98
2018-06-23T19:21:37.800Z,95683.53
2018-06-23T19:24:06.875Z,95691.46
2018-06-23T19:26:35.772Z,95685.63
2018-06-23T19:29:04.841Z,95698.36
2018-06-23T19:31:33.728Z,95688.48
2018-06-23T19:34:03.193Z,95685.63
2018-06-23T19:36:32.044Z,95691.20
2018-06-23T19:39:00.818Z,95680.98
2018-06-23T19:41:30.395Z,95684.70
2018-06-23T19:43:59.195Z,95685.86
2018-06-23T19:46:27.788Z,95691.50
2018-06-23T19:48:56.698Z,95689.44
2018-06-23T19:51:25.711Z,95695.45
2018-06-23T19:53:54.533Z,95688.88
2018-06-23T19:56:23.227Z,95684.00
2018-06-23T19:58:51.849Z,95681.78
2018-06-23T20:01:20.492Z,95686.81
2018-06-23T20:03:49.195Z,95687.08
2018-06-23T20:06:17.806Z,95686.29
2018-06-23T20:08:46.491Z,95681.35
2018-06-23T20:11:15.159Z,95686.89
2018-06-23T20:13:43.719Z,95680.59
2018-06-23T20:16:12.430Z,95681.08
2018-06-23T20:18:41.111Z,95672.89
2018-06-23T20:21:09.769Z,95678.66
2018-06-23T20:23:38.676Z,95679.51
2018-06-23T20:26:07.292Z,95682.38
2018-06-23T20:28:35.896Z,95687.94
2018-06-23T20:31:04.907Z,95692.38
2018-06-23T20:33:33.576Z,95698.50
2018-06-23T20:36:02.250Z,95694.35
2018-06-23T20:38:30.923Z,95695.14
2018-06-23T20:40:59.507Z,95696.04
2018-06-23T20:43:28.134Z,95691.41
2018-06-23T20:45:57.562Z,95693.81
2018-06-23T20:48:26.572Z,95690.91
2018-06-23T20:50:55.379Z,95686.58
2018-06-23T20:53:24.498Z,95688.86
2018-06-23T20:55:53.420Z,95688.75
2018-06-23T20:58:22.639Z,95688.13
2018-06-23T21:00:51.259Z,95686.41
2018-06-23T21:03:20.002Z,95687.59
2018-06-23T21:05:48.638Z,95685.35
2018-06-23T21:08:17.312Z,95681.09
2018-06-23T21:10:47.296Z,95683.84
2018-06-23T21:13:15.902Z,95685.66
2018-06-23T21:15:44.530Z,95691.33
2018-06-23T21:18:13.558Z,95690.24
2018-06-23T21:20:42.214Z,95683.22
2018-06-23T21:23:11.179Z,95690.02
2018-06-23T21:25:39.798Z,95692.05
2018-06-23T21:28:08.498Z,95695.64
2018-06-23T21:30:37.088Z,95692.49
2018-06-23T21:33:05.731Z,95692.61
2018-06-23T21:35:34.375Z,95690.22
2018-06-23T21:38:03.361Z,95691.81
2018-06-23T21:40:32.078Z,95691.30
2018-06-23T21:43:00.715Z,95692.77
2018-06-23T21:45:29.719Z,95693.00
2018-06-23T21:47:58.351Z,95695.95
2018-06-23T21:50:26.961Z,95696.55
2018-06-23T21:52:55.574Z,95700.73
2018-06-23T21:55:24.154Z,95691.47
2018-06-23T21:57:52.746Z,95685.84
2018-06-23T22:00:30.885Z,95682.00
2018-06-23T22:03:00.599Z,95686.75
2018-06-23T22:05:29.642Z,95682.67
2018-06-23T22:07:58.352Z,95683.36
2018-06-23T22:10:27.857Z,95685.63
2018-06-23T22:12:56.601Z,95678.64
2018-06-23T22:15:25.579Z,95678.64
2018-06-23T22:17:54.242Z,95684.70
2018-06-23T22:20:22.831Z,95685.41
2018-06-23T22:22:52.403Z,95685.73
2018-06-23T22:25:21.843Z,95682.47
2018-06-23T22:27:50.501Z,95691.60
2018-06-23T22:30:19.667Z,95685.86
2018-06-23T22:32:48.284Z,95687.09
2018-06-23T22:35:16.914Z,95683.36
2018-06-23T22:37:45.555Z,95693.53
2018-06-23T22:40:14.178Z,95685.27
2018-06-23T22:42:42.816Z,95684.71
2018-06-23T22:45:11.539Z,95682.91
2018-06-23T22:47:40.118Z,95682.47
2018-06-23T22:50:09.585Z,95683.14
2018-06-23T22:52:38.495Z,95685.53
2018-06-23T22:55:07.991Z,95684.03
2018-06-23T22:57:36.684Z,95677.28
2018-06-23T23:00:09.446Z,95686.09
2018-06-23T23:02:38.103Z,95676.73
2018-06-23T23:05:07.323Z,95676.05
2018-06-23T23:07:36.003Z,95677.08
2018-06-23T23:10:04.955Z,95677.98
2018-06-23T23:12:33.551Z,95677.88
2018-06-23T23:15:02.152Z,95677.88
2018-06-23T23:17:30.972Z,95677.29
2018-06-23T23:19:59.570Z,95671.89
2018-06-23T23:22:28.226Z,95673.92
2018-06-23T23:24:56.918Z,95675.73
2018-06-23T23:27:25.555Z,95666.98
2018-06-23T23:29:54.225Z,95660.56
2018-06-23T23:32:22.882Z,95664.52
2018-06-23T23:34:51.884Z,95659.98
2018-06-23T23:37:20.528Z,95657.17
2018-06-23T23:39:49.470Z,95658.08
2018-06-23T23:42:18.064Z,95655.81
2018-06-23T23:44:46.662Z,95649.95
2018-06-23T23:47:15.254Z,95648.36
2018-06-23T23:49:43.886Z,95649.81
2018-06-23T23:52:12.442Z,95645.66
2018-06-23T23:54:41.050Z,95648.45
2018-06-23T23:57:09.702Z,95656.78
2018-06-23T23:59:38.335Z,95652.16
